createdAt,value
2022-09-06T00:01:39.356Z,99028.00
2022-09-06T00:04:08.118Z,99025.88
2022-09-06T00:06:36.761Z,99015.25
2022-09-06T00:09:03.972Z,99016.00
2022-09-06T00:11:30.829Z,99016.09
2022-09-06T00:13:57.632Z,99023.72
2022-09-06T00:16:30.170Z,98992.19
2022-09-06T00:18:57.787Z,99033.03
2022-09-06T00:21:29.126Z,99026.09
2022-09-06T00:23:56.190Z,99024.75
2022-09-06T00:26:23.674Z,99023.34
2022-09-06T00:28:50.547Z,98967.63
2022-09-06T00:31:24.721Z,98998.28
2022-09-06T00:33:51.815Z,99022.44
2022-09-06T00:36:20.949Z,99025.56
2022-09-06T00:38:48.079Z,99018.53
2022-09-06T00:41:16.588Z,99019.47
2022-09-06T00:43:44.204Z,98990.44
2022-09-06T00:46:18.373Z,98993.66
2022-09-06T00:48:47.458Z,98998.13
2022-09-06T00:51:16.838Z,98956.63
2022-09-06T00:53:43.797Z,98965.94
2022-09-06T00:56:11.121Z,98963.34
2022-09-06T00:58:38.200Z,99007.13
2022-09-06T01:01:06.675Z,99021.81
2022-09-06T01:03:33.967Z,99022.66
2022-09-06T01:06:09.631Z,99026.53
2022-09-06T01:09:17.155Z,99028.56
2022-09-06T01:12:08.531Z,99032.16
2022-09-06T01:14:52.150Z,99025.16
2022-09-06T01:18:19.619Z,99032.56
2022-09-06T01:21:03.749Z,99035.06
2022-09-06T01:24:10.893Z,99040.03
2022-09-06T01:27:06.301Z,99045.53
2022-09-06T01:30:06.707Z,99007.88
2022-09-06T01:33:06.328Z,99035.53
2022-09-06T01:35:44.320Z,99009.09
2022-09-06T01:38:11.248Z,99052.34
2022-09-06T01:40:38.057Z,99043.19
2022-09-06T01:43:11.191Z,99057.22
2022-09-06T01:46:13.089Z,99054.84
2022-09-06T01:49:10.435Z,99057.94
2022-09-06T01:51:57.209Z,99057.72
2022-09-06T01:54:57.865Z,99057.34
2022-09-06T01:58:07.984Z,99060.81
2022-09-06T02:01:04.388Z,99064.66
2022-09-06T02:03:52.265Z,99029.97
2022-09-06T02:06:29.113Z,99060.81
2022-09-06T02:09:09.153Z,99046.19
2022-09-06T02:12:00.233Z,99034.38
2022-09-06T02:14:36.222Z,99030.81
2022-09-06T02:17:05.129Z,99052.38
2022-09-06T02:19:45.498Z,99058.22
2022-09-06T02:22:18.969Z,99054.88
2022-09-06T02:24:47.670Z,99048.91
2022-09-06T02:27:14.626Z,99028.78
2022-09-06T02:29:42.179Z,99040.72
2022-09-06T02:32:30.083Z,99058.81
2022-09-06T02:34:57.909Z,99057.63
2022-09-06T02:37:26.227Z,99139.53
2022-09-06T02:39:55.355Z,99134.50
2022-09-06T02:42:23.193Z,99121.50
2022-09-06T02:44:50.020Z,99092.28
2022-09-06T02:47:16.876Z,99080.84
2022-09-06T02:49:43.695Z,99087.06
2022-09-06T02:52:10.723Z,99069.66
2022-09-06T02:54:37.539Z,99068.72
2022-09-06T02:57:04.419Z,99078.50
2022-09-06T02:59:31.237Z,99071.81
2022-09-06T03:01:58.094Z,99072.97
2022-09-06T03:04:25.005Z,99088.84
2022-09-06T03:06:51.842Z,99097.31
2022-09-06T03:09:18.710Z,99096.97
2022-09-06T03:11:45.524Z,99090.88
2022-09-06T03:14:12.371Z,99090.16
2022-09-06T03:16:39.231Z,99064.28
2022-09-06T03:19:06.220Z,99039.63
2022-09-06T03:21:33.062Z,98996.81
2022-09-06T03:23:59.902Z,98990.03
2022-09-06T03:26:28.142Z,99016.94
2022-09-06T03:28:54.996Z,99015.28
2022-09-06T03:31:21.818Z,99010.16
2022-09-06T03:33:48.856Z,99035.69
2022-09-06T03:36:15.848Z,99003.75
2022-09-06T03:38:42.682Z,99050.59
2022-09-06T03:41:09.572Z,99041.16
2022-09-06T03:43:36.602Z,99060.59
2022-09-06T03:46:03.553Z,99022.91
2022-09-06T03:48:30.718Z,99038.91
2022-09-06T03:50:59.418Z,99062.97
2022-09-06T03:53:28.418Z,99076.47
2022-09-06T03:55:58.131Z,99101.13
2022-09-06T03:58:30.200Z,99071.09
2022-09-06T04:01:11.741Z,99077.28
2022-09-06T04:03:39.770Z,99090.41
2022-09-06T04:06:07.562Z,99067.03
2022-09-06T04:08:35.553Z,99082.28
2022-09-06T04:11:02.593Z,99070.97
2022-09-06T04:13:32.123Z,99069.06
2022-09-06T04:15:59.707Z,99074.19
2022-09-06T04:18:27.092Z,99065.47
2022-09-06T04:20:58.210Z,99053.91
2022-09-06T04:23:28.323Z,99053.19
2022-09-06T04:25:57.977Z,99063.22
2022-09-06T04:28:26.596Z,99056.53
2022-09-06T04:31:04.966Z,99076.56
2022-09-06T04:33:35.001Z,99063.81
2022-09-06T04:36:05.818Z,99053.91
2022-09-06T04:38:43.158Z,99064.28
2022-09-06T04:41:13.873Z,99090.16
2022-09-06T04:43:40.816Z,99087.41
2022-09-06T04:46:19.090Z,99072.53
2022-09-06T04:48:46.799Z,99054.28
2022-09-06T04:51:13.638Z,99053.00
2022-09-06T04:53:40.607Z,99060.84
2022-09-06T04:56:07.559Z,99033.66
2022-09-06T04:58:34.450Z,99055.59
2022-09-06T05:01:01.325Z,99053.19
2022-09-06T05:03:28.258Z,99061.09
2022-09-06T05:06:08.088Z,99060.00
2022-09-06T05:08:41.163Z,99072.03
2022-09-06T05:11:09.048Z,99096.25
2022-09-06T05:13:35.877Z,99086.59
2022-09-06T05:16:05.056Z,99096.00
2022-09-06T05:18:32.239Z,99088.00
2022-09-06T05:20:59.310Z,99071.94
2022-09-06T05:23:26.760Z,99065.59
2022-09-06T05:25:54.377Z,99060.25
2022-09-06T05:28:21.555Z,99082.53
2022-09-06T05:30:48.381Z,99090.31
2022-09-06T05:33:22.104Z,99090.91
2022-09-06T05:35:49.582Z,99094.94
2022-09-06T05:38:16.653Z,99115.31
2022-09-06T05:40:43.605Z,99081.81
2022-09-06T05:43:10.415Z,99116.53
2022-09-06T05:45:37.294Z,99111.16
2022-09-06T05:48:04.427Z,99107.09
2022-09-06T05:50:31.282Z,99064.16
2022-09-06T05:52:58.114Z,99090.50
2022-09-06T05:55:24.973Z,99113.75
2022-09-06T05:57:51.789Z,99119.00
2022-09-06T06:00:18.742Z,99111.75
2022-09-06T06:02:48.727Z,99112.44
2022-09-06T06:05:16.514Z,99109.34
2022-09-06T06:07:43.355Z,99119.50
2022-09-06T06:10:10.716Z,99113.28
2022-09-06T06:12:37.569Z,99104.47
2022-09-06T06:15:05.717Z,99127.69
2022-09-06T06:17:32.883Z,99121.75
2022-09-06T06:19:59.716Z,99122.09
2022-09-06T06:22:26.516Z,99132.59
2022-09-06T06:24:53.390Z,99132.34
2022-09-06T06:27:20.235Z,99133.78
2022-09-06T06:29:47.170Z,99113.28
2022-09-06T06:32:13.988Z,99119.47
2022-09-06T06:34:41.701Z,99119.28
2022-09-06T06:37:08.606Z,99119.00
2022-09-06T06:39:35.521Z,99108.78
2022-09-06T06:42:02.479Z,99114.34
2022-09-06T06:44:29.321Z,99107.81
2022-09-06T06:46:57.960Z,99108.38
2022-09-06T06:49:25.875Z,99119.28
2022-09-06T06:51:53.049Z,99119.47
2022-09-06T06:54:19.938Z,99128.53
2022-09-06T06:56:46.983Z,99119.97
2022-09-06T06:59:14.452Z,99118.63
2022-09-06T07:01:41.404Z,99134.38
2022-09-06T07:04:10.409Z,99105.66
2022-09-06T07:12:26.170Z,99104.78
2022-09-06T07:14:53.263Z,99093.84
2022-09-06T07:17:20.131Z,99090.59
2022-09-06T07:22:33.885Z,99090.56
2022-09-06T07:25:01.161Z,99102.00
2022-09-06T07:30:15.650Z,99092.72
2022-09-06T07:32:42.469Z,99108.41
2022-09-06T07:35:09.675Z,99094.13
2022-09-06T07:37:36.489Z,99107.34
2022-09-06T07:40:04.810Z,99090.53
2022-09-06T07:42:36.158Z,99086.47
2022-09-06T07:45:04.867Z,99085.03
2022-09-06T07:53:13.135Z,99107.38
2022-09-06T07:55:44.436Z,99094.06
2022-09-06T07:58:11.244Z,99083.91
2022-09-06T08:00:40.956Z,99105.09
2022-09-06T08:03:07.982Z,99095.91
2022-09-06T08:11:08.573Z,99068.44
2022-09-06T08:13:36.718Z,99103.22
2022-09-06T08:16:09.694Z,99079.09
2022-09-06T08:18:37.760Z,99090.97
2022-09-06T08:21:12.739Z,99095.97
2022-09-06T08:23:44.467Z,99093.78
2022-09-06T08:26:11.912Z,99085.19
2022-09-06T08:28:38.778Z,99072.28
2022-09-06T08:31:17.380Z,99098.56
2022-09-06T08:33:44.607Z,99095.22
2022-09-06T08:36:12.147Z,99070.31
2022-09-06T08:38:39.119Z,99105.13
2022-09-06T08:41:16.806Z,99097.81
2022-09-06T08:47:04.446Z,99087.44
2022-09-06T08:49:37.692Z,99067.75
2022-09-06T08:52:35.495Z,99057.94
2022-09-06T08:55:29.528Z,99086.97
2022-09-06T08:58:26.411Z,99080.34
2022-09-06T09:01:03.621Z,99057.50
2022-09-06T09:03:39.524Z,99059.59
2022-09-06T09:06:10.022Z,99042.00
2022-09-06T09:08:55.664Z,99067.72
2022-09-06T09:11:25.530Z,99038.91
2022-09-06T09:14:28.093Z,99049.44
2022-09-06T09:17:20.436Z,99049.19
2022-09-06T09:19:47.465Z,99044.47
2022-09-06T09:22:19.457Z,99030.75
2022-09-06T09:24:48.625Z,99051.72
2022-09-06T09:27:25.928Z,99048.09
2022-09-06T09:32:45.214Z,99042.56
2022-09-06T09:35:33.159Z,99032.31
2022-09-06T09:38:12.857Z,99051.13
2022-09-06T09:40:50.051Z,99055.72
2022-09-06T09:43:25.188Z,99046.38
2022-09-06T09:46:24.087Z,99047.91
2022-09-06T09:49:11.025Z,99028.75
2022-09-06T09:52:05.397Z,99031.94
2022-09-06T09:54:37.031Z,99036.78
2022-09-06T09:57:12.118Z,99034.25
2022-09-06T09:59:58.237Z,99010.00
2022-09-06T10:02:30.887Z,99026.88
2022-09-06T10:05:08.044Z,99028.75
2022-09-06T10:07:42.861Z,99014.88
2022-09-06T10:10:27.575Z,99033.22
2022-09-06T10:13:29.515Z,99042.50
2022-09-06T10:15:58.981Z,99031.44
2022-09-06T10:18:42.874Z,99013.63
2022-09-06T10:21:14.627Z,98992.72
2022-09-06T10:24:26.976Z,99023.44
2022-09-06T10:26:59.933Z,98997.50
2022-09-06T10:29:42.706Z,99014.16
2022-09-06T10:32:34.723Z,99017.00
2022-09-06T10:35:16.400Z,99004.81
2022-09-06T10:37:50.032Z,99008.13
2022-09-06T10:41:02.956Z,99003.19
2022-09-06T10:43:43.137Z,98990.47
2022-09-06T10:46:18.679Z,99007.91
2022-09-06T10:48:46.376Z,98983.72
2022-09-06T10:51:44.012Z,98972.47
2022-09-06T10:54:13.845Z,98972.41
2022-09-06T10:57:05.119Z,98965.44
2022-09-06T11:00:14.447Z,98982.38
2022-09-06T11:05:54.479Z,98962.63
2022-09-06T11:08:53.469Z,98976.41
2022-09-06T11:11:41.541Z,98951.19
2022-09-06T11:14:13.520Z,98960.78
2022-09-06T11:16:59.034Z,98949.19
2022-09-06T11:19:45.706Z,98955.75
2022-09-06T11:22:33.049Z,98959.34
2022-09-06T11:25:46.682Z,98961.63
2022-09-06T11:28:38.638Z,98957.97
2022-09-06T11:34:30.590Z,98948.41
2022-09-06T11:36:59.196Z,98957.97
2022-09-06T11:42:47.772Z,98954.63
2022-09-06T11:45:39.050Z,98943.69
2022-09-06T11:48:24.188Z,98958.78
2022-09-06T11:50:53.825Z,98958.59
2022-09-06T11:53:34.463Z,98947.19
2022-09-06T11:56:01.178Z,98950.81
2022-09-06T11:58:59.719Z,98959.69
2022-09-06T12:01:26.474Z,98958.00
2022-09-06T12:04:09.752Z,98950.53
2022-09-06T12:06:44.233Z,98954.88
2022-09-06T12:09:33.036Z,98938.25
2022-09-06T12:12:01.440Z,98933.47
2022-09-06T12:14:34.512Z,98919.13
2022-09-06T12:17:01.570Z,98938.34
2022-09-06T12:20:06.183Z,98937.69
2022-09-06T12:22:32.910Z,98927.03
2022-09-06T12:25:29.520Z,98893.97
2022-09-06T12:28:05.464Z,98920.66
2022-09-06T12:30:42.951Z,98919.13
2022-09-06T12:33:30.745Z,98916.81
2022-09-06T12:36:23.652Z,98911.81
2022-09-06T12:39:14.564Z,98924.88
2022-09-06T12:41:50.348Z,98928.38
2022-09-06T12:44:24.437Z,98910.06
2022-09-06T12:46:52.055Z,98924.84
2022-09-06T12:49:22.372Z,98900.66
2022-09-06T12:51:49.754Z,98907.00
2022-09-06T12:54:26.462Z,98864.50
2022-09-06T12:57:11.957Z,98914.59
2022-09-06T12:59:47.769Z,98925.66
2022-09-06T13:02:22.442Z,98910.63
2022-09-06T13:05:05.354Z,98920.03
2022-09-06T13:07:35.338Z,98896.34
2022-09-06T13:10:04.265Z,98883.25
2022-09-06T13:12:39.504Z,98900.59
2022-09-06T13:15:19.615Z,98918.78
2022-09-06T13:17:46.737Z,98896.69
2022-09-06T13:20:24.300Z,98907.09
2022-09-06T13:22:52.302Z,98896.44
2022-09-06T13:25:22.114Z,98887.16
2022-09-06T13:27:51.631Z,98854.63
2022-09-06T13:30:43.225Z,98870.94
2022-09-06T13:33:26.223Z,98882.81
2022-09-06T13:36:12.229Z,98898.00
2022-09-06T13:38:38.925Z,98896.97
2022-09-06T13:41:27.780Z,98895.50
2022-09-06T13:44:11.310Z,98890.72
2022-09-06T13:46:38.562Z,98816.69
2022-09-06T13:49:06.127Z,98879.78
2022-09-06T13:51:34.051Z,98874.94
2022-09-06T13:54:15.582Z,98860.09
2022-09-06T13:56:44.700Z,98854.13
2022-09-06T13:59:12.477Z,98786.41
2022-09-06T14:01:45.220Z,98842.09
2022-09-06T14:04:21.289Z,98834.06
2022-09-06T14:06:49.192Z,98860.31
2022-09-06T14:09:16.049Z,98845.78
2022-09-06T14:11:47.524Z,98839.03
2022-09-06T14:14:16.667Z,98823.34
2022-09-06T14:16:44.309Z,98838.53
2022-09-06T14:19:11.391Z,98809.53
2022-09-06T14:21:38.695Z,98824.50
2022-09-06T14:24:06.581Z,98763.56
2022-09-06T14:26:35.742Z,98831.13
2022-09-06T14:29:03.160Z,98800.09
2022-09-06T14:31:32.717Z,98837.50
2022-09-06T14:34:01.199Z,98818.41
2022-09-06T14:36:31.495Z,98813.59
2022-09-06T14:38:59.930Z,98841.56
2022-09-06T14:41:27.386Z,98827.94
2022-09-06T14:43:57.270Z,98819.97
2022-09-06T14:46:26.303Z,98853.03
2022-09-06T14:49:09.906Z,98840.34
2022-09-06T14:51:38.561Z,98851.91
2022-09-06T14:54:10.063Z,98808.25
2022-09-06T14:56:39.910Z,98819.38
2022-09-06T14:59:09.107Z,98832.94
2022-09-06T15:01:38.650Z,98843.13
2022-09-06T15:04:09.180Z,98819.34
2022-09-06T15:06:39.103Z,98841.19
2022-09-06T15:09:07.848Z,98789.00
2022-09-06T15:11:39.329Z,98843.06
2022-09-06T15:14:20.046Z,98829.72
2022-09-06T15:16:53.477Z,98847.91
2022-09-06T15:19:28.217Z,98842.59
2022-09-06T15:21:57.228Z,98779.75
2022-09-06T15:24:24.658Z,98829.97
2022-09-06T15:26:51.923Z,98835.88
2022-09-06T15:29:19.176Z,98830.91
2022-09-06T15:31:50.326Z,98837.88
2022-09-06T15:34:19.311Z,98814.72
2022-09-06T15:36:46.190Z,98827.72
2022-09-06T15:39:14.142Z,98814.41
2022-09-06T15:41:41.596Z,98812.75
2022-09-06T15:44:14.862Z,98818.59
2022-09-06T15:46:51.953Z,98826.22
2022-09-06T15:49:28.929Z,98813.63
2022-09-06T15:52:00.738Z,98795.16
2022-09-06T15:54:46.945Z,98808.69
2022-09-06T15:57:16.185Z,98793.78
2022-09-06T15:59:43.025Z,98797.09
2022-09-06T16:02:10.251Z,98761.41
2022-09-06T16:04:37.218Z,98793.16
2022-09-06T16:07:04.411Z,98784.38
2022-09-06T16:09:31.783Z,98772.91
2022-09-06T16:11:58.635Z,98774.16
2022-09-06T16:14:25.633Z,98753.34
2022-09-06T16:16:54.645Z,98744.00
2022-09-06T16:19:21.600Z,98768.13
2022-09-06T16:21:49.130Z,98750.75
2022-09-06T16:24:18.527Z,98734.25
2022-09-06T16:26:49.030Z,98742.94
2022-09-06T16:29:18.358Z,98735.84
2022-09-06T16:31:46.363Z,98711.53
2022-09-06T16:34:14.559Z,98710.13
2022-09-06T16:36:41.625Z,98732.28
2022-09-06T16:39:08.884Z,98714.78
2022-09-06T16:41:46.734Z,98742.63
2022-09-06T16:44:18.129Z,98743.63
2022-09-06T16:46:47.614Z,98756.72
2022-09-06T16:49:17.104Z,98760.81
2022-09-06T16:51:44.426Z,98753.41
2022-09-06T16:54:11.266Z,98737.50
2022-09-06T16:56:38.956Z,98736.75
2022-09-06T16:59:08.786Z,98737.88
2022-09-06T17:01:37.591Z,98752.38
2022-09-06T17:04:05.708Z,98769.63
2022-09-06T17:06:34.118Z,98759.69
2022-09-06T17:09:01.036Z,98753.34
2022-09-06T17:11:29.275Z,98741.19
2022-09-06T17:13:57.505Z,98756.44
2022-09-06T17:16:43.851Z,98757.97
2022-09-06T17:19:11.937Z,98762.81
2022-09-06T17:21:40.250Z,98742.38
2022-09-06T17:24:09.640Z,98736.94
2022-09-06T17:26:39.122Z,98764.25
2022-09-06T17:29:07.148Z,98762.06
2022-09-06T17:31:34.839Z,98739.94
2022-09-06T17:34:01.860Z,98750.56
2022-09-06T17:36:31.641Z,98757.06
2022-09-06T17:39:15.107Z,98755.06
2022-09-06T17:41:50.356Z,98733.44
2022-09-06T17:44:25.278Z,98749.97
2022-09-06T17:47:11.299Z,98744.91
2022-09-06T17:49:39.357Z,98739.19
2022-09-06T17:52:06.182Z,98734.91
2022-09-06T17:54:33.370Z,98738.56
2022-09-06T17:57:00.255Z,98749.16
2022-09-06T17:59:30.417Z,98735.72
2022-09-06T18:01:59.766Z,98723.69
2022-09-06T18:04:26.619Z,98734.91
2022-09-06T18:06:53.422Z,98743.25
2022-09-06T18:09:21.462Z,98741.91
2022-09-06T18:11:48.367Z,98746.56
2022-09-06T18:14:20.518Z,98712.44
2022-09-06T18:20:43.610Z,98737.59
2022-09-06T18:23:15.634Z,98739.91
2022-09-06T18:25:44.139Z,98741.88
2022-09-06T18:28:36.507Z,98720.00
2022-09-06T18:31:19.529Z,98757.09
2022-09-06T18:33:46.941Z,98764.34
2022-09-06T18:36:15.540Z,98763.19
2022-09-06T18:38:43.081Z,98757.72
2022-09-06T18:41:33.126Z,98771.94
2022-09-06T18:44:04.362Z,98753.88
2022-09-06T18:46:34.025Z,98778.53
2022-09-06T18:49:01.387Z,98773.34
2022-09-06T18:51:28.538Z,98769.31
2022-09-06T18:54:04.513Z,98769.19
2022-09-06T18:56:31.410Z,98719.81
2022-09-06T18:59:02.643Z,98774.44
2022-09-06T19:01:30.512Z,98770.41
2022-09-06T19:03:59.098Z,98784.31
2022-09-06T19:06:28.820Z,98784.78
2022-09-06T19:09:00.084Z,98780.59
2022-09-06T19:11:27.484Z,98778.72
2022-09-06T19:13:56.498Z,98772.22
2022-09-06T19:16:25.467Z,98788.75
2022-09-06T19:18:55.993Z,98755.81
2022-09-06T19:21:25.380Z,98791.56
2022-09-06T19:24:02.331Z,98782.84
2022-09-06T19:26:33.121Z,98773.03
2022-09-06T19:29:03.545Z,98789.19
2022-09-06T19:31:59.427Z,98787.84
2022-09-06T19:34:26.276Z,98778.69
2022-09-06T19:36:55.208Z,98785.66
2022-09-06T19:39:22.110Z,98767.47
2022-09-06T19:41:48.996Z,98781.25
2022-09-06T19:44:16.938Z,98784.41
2022-09-06T19:46:46.164Z,98767.38
2022-09-06T19:49:16.857Z,98788.56
2022-09-06T19:51:48.645Z,98787.22
2022-09-06T19:54:16.771Z,98764.97
2022-09-06T19:56:44.801Z,98755.28
2022-09-06T19:59:13.430Z,98782.09
2022-09-06T20:01:42.693Z,98782.03
2022-09-06T20:04:11.920Z,98783.06
2022-09-06T20:06:39.214Z,98792.31
2022-09-06T20:09:09.104Z,98793.00
2022-09-06T20:11:37.833Z,98758.44
2022-09-06T20:14:06.449Z,98765.09
2022-09-06T20:16:35.241Z,98754.63
2022-09-06T20:19:04.123Z,98760.84
2022-09-06T20:21:31.339Z,98773.91
2022-09-06T20:23:59.706Z,98773.16
2022-09-06T20:26:29.164Z,98737.47
2022-09-06T20:29:01.901Z,98748.13
2022-09-06T20:31:30.635Z,98730.03
2022-09-06T20:34:00.986Z,98762.66
2022-09-06T20:36:28.358Z,98678.94
2022-09-06T20:38:55.274Z,98754.69
2022-09-06T20:41:24.622Z,98757.00
2022-09-06T20:43:53.655Z,98773.19
2022-09-06T20:46:24.269Z,98752.00
2022-09-06T20:48:52.008Z,98735.19
2022-09-06T20:51:21.653Z,98762.00
2022-09-06T20:53:59.200Z,98764.00
2022-09-06T20:56:47.484Z,98751.69
2022-09-06T20:59:14.474Z,98762.91
2022-09-06T21:01:45.120Z,98739.56
2022-09-06T21:04:14.728Z,98774.03
2022-09-06T21:06:41.884Z,98775.56
2022-09-06T21:09:14.440Z,98774.47
2022-09-06T21:11:42.687Z,98756.88
2022-09-06T21:14:10.260Z,98786.25
2022-09-06T21:16:38.746Z,98787.06
2022-09-06T21:19:08.411Z,98770.72
2022-09-06T21:21:35.927Z,98788.88
2022-09-06T21:24:06.289Z,98785.56
2022-09-06T21:26:33.914Z,98793.75
2022-09-06T21:29:00.973Z,98787.94
2022-09-06T21:31:33.616Z,98800.69
2022-09-06T21:34:07.324Z,98773.16
2022-09-06T21:36:38.250Z,98804.00
2022-09-06T21:39:09.522Z,98788.00
2022-09-06T21:41:39.014Z,98808.88
2022-09-06T21:44:07.948Z,98780.25
2022-09-06T21:46:38.196Z,98804.28
2022-09-06T21:49:11.861Z,98745.06
2022-09-06T21:51:39.243Z,98783.38
2022-09-06T21:54:06.743Z,98780.03
2022-09-06T21:56:36.229Z,98768.53
2022-09-06T21:59:04.664Z,98784.06
2022-09-06T22:01:34.544Z,98776.31
2022-09-06T22:04:02.328Z,98772.97
2022-09-06T22:06:31.570Z,98772.81
2022-09-06T22:09:02.085Z,98779.34
2022-09-06T22:11:32.312Z,98763.44
2022-09-06T22:14:05.421Z,98747.56
2022-09-06T22:16:35.568Z,98791.72
2022-09-06T22:19:04.850Z,98765.88
2022-09-06T22:21:32.953Z,98764.44
2022-09-06T22:24:05.597Z,98767.94
2022-09-06T22:26:34.967Z,98784.66
2022-09-06T22:29:06.835Z,98768.22
2022-09-06T22:31:35.306Z,98777.88
2022-09-06T22:34:02.429Z,98779.84
2022-09-06T22:36:29.554Z,98782.63
2022-09-06T22:38:57.563Z,98769.06
2022-09-06T22:41:27.055Z,98780.69
2022-09-06T22:43:54.208Z,98789.44
2022-09-06T22:46:21.416Z,98704.47
2022-09-06T22:48:49.239Z,98779.72
2022-09-06T22:51:16.170Z,98745.13
2022-09-06T22:53:43.004Z,98753.47
2022-09-06T22:56:09.939Z,98746.28
2022-09-06T22:58:36.966Z,98752.38
2022-09-06T23:01:10.339Z,98773.69
2022-09-06T23:03:37.804Z,98752.38
2022-09-06T23:06:05.587Z,98722.19
2022-09-06T23:08:35.141Z,98755.97
2022-09-06T23:11:11.655Z,98747.94
2022-09-06T23:13:38.796Z,98722.47
2022-09-06T23:16:08.100Z,98748.78
2022-09-06T23:18:35.274Z,98724.97
2022-09-06T23:21:07.347Z,98750.47
2022-09-06T23:23:35.790Z,98731.06
2022-09-06T23:26:10.990Z,98733.56
2022-09-06T23:28:38.757Z,98750.72
2022-09-06T23:31:11.979Z,98741.03
2022-09-06T23:33:40.386Z,98756.53
2022-09-06T23:36:11.215Z,98756.56
2022-09-06T23:38:40.718Z,98757.94
2022-09-06T23:41:09.848Z,98739.38
2022-09-06T23:43:37.713Z,98747.69
2022-09-06T23:46:05.217Z,98747.41
2022-09-06T23:48:32.310Z,98715.72
2022-09-06T23:50:59.785Z,98759.88
2022-09-06T23:53:26.598Z,98724.06
2022-09-06T23:55:53.449Z,98740.38
2022-09-06T23:58:20.664Z,98728.31
